createdAt,value
2017-12-06T00:00:32.650Z,70.39
2017-12-06T00:01:38.371Z,70.34
2017-12-06T00:02:44.084Z,70.39
2017-12-06T00:03:50.246Z,70.39
2017-12-06T00:04:56.765Z,70.41
2017-12-06T00:06:02.480Z,70.43
2017-12-06T00:07:08.200Z,70.55
2017-12-06T00:08:14.669Z,70.55
2017-12-06T00:09:20.386Z,70.58
2017-12-06T00:10:26.897Z,70.55
2017-12-06T00:11:32.618Z,70.48
2017-12-06T00:12:43.812Z,70.50
2017-12-06T00:13:53.902Z,70.50
2017-12-06T00:15:05.645Z,70.45
2017-12-06T00:16:11.393Z,70.36
2017-12-06T00:17:17.117Z,70.45
2017-12-06T00:18:22.829Z,70.41
2017-12-06T00:19:28.547Z,70.42
2017-12-06T00:20:34.856Z,70.37
2017-12-06T00:21:40.634Z,70.28
2017-12-06T00:22:46.929Z,70.31
2017-12-06T00:23:52.490Z,70.28
2017-12-06T00:24:58.202Z,70.25
2017-12-06T00:26:03.775Z,70.28
2017-12-06T00:27:09.508Z,70.23
2017-12-06T00:28:15.044Z,70.23
2017-12-06T00:29:20.761Z,70.30
2017-12-06T00:30:26.493Z,70.41
2017-12-06T00:31:32.208Z,70.40
2017-12-06T00:32:38.533Z,70.37
2017-12-06T00:33:44.057Z,70.48
2017-12-06T00:34:49.801Z,70.47
2017-12-06T00:35:55.521Z,70.43
2017-12-06T00:37:01.243Z,70.35
2017-12-06T00:38:06.984Z,70.15
2017-12-06T00:39:12.704Z,70.13
2017-12-06T00:40:19.178Z,70.00
2017-12-06T00:41:24.881Z,70.04
2017-12-06T00:42:30.599Z,69.96
2017-12-06T00:43:36.333Z,70.00
2017-12-06T00:44:42.055Z,69.94
2017-12-06T00:45:47.561Z,69.94
2017-12-06T00:46:54.039Z,69.89
2017-12-06T00:47:59.763Z,69.91
2017-12-06T00:49:05.506Z,69.93
2017-12-06T00:50:11.992Z,69.87
2017-12-06T00:51:17.711Z,69.82
2017-12-06T00:52:24.199Z,69.81
2017-12-06T00:53:29.918Z,69.85
2017-12-06T00:54:35.661Z,69.77
2017-12-06T00:55:41.387Z,69.75
2017-12-06T00:56:47.870Z,69.66
2017-12-06T00:57:53.591Z,69.64
2017-12-06T00:59:00.080Z,69.55
2017-12-06T01:00:05.224Z,69.62
2017-12-06T01:01:11.112Z,69.58
2017-12-06T01:02:17.592Z,69.57
2017-12-06T01:03:23.317Z,69.69
2017-12-06T01:04:29.037Z,69.74
2017-12-06T01:05:35.554Z,69.71
2017-12-06T01:06:41.370Z,69.68
2017-12-06T01:07:47.079Z,69.75
2017-12-06T01:08:53.564Z,69.74
2017-12-06T01:09:59.276Z,69.79
2017-12-06T01:11:05.804Z,69.79
2017-12-06T01:12:11.520Z,69.77
2017-12-06T01:13:17.238Z,69.78
2017-12-06T01:14:23.732Z,69.76
2017-12-06T01:15:29.482Z,69.85
2017-12-06T01:16:35.221Z,69.93
2017-12-06T01:17:40.933Z,69.90
2017-12-06T01:18:46.663Z,69.89
2017-12-06T01:19:52.387Z,69.89
2017-12-06T01:20:59.073Z,69.85
2017-12-06T01:22:04.590Z,69.88
2017-12-06T01:23:11.079Z,69.97
2017-12-06T01:24:16.803Z,70.12
2017-12-06T01:25:22.519Z,70.12
2017-12-06T01:26:28.999Z,70.09
2017-12-06T01:27:35.495Z,70.17
2017-12-06T01:28:41.220Z,70.25
2017-12-06T01:29:46.745Z,70.19
2017-12-06T01:30:52.460Z,70.20
2017-12-06T01:31:58.945Z,70.23
2017-12-06T01:33:04.385Z,70.15
2017-12-06T01:34:10.099Z,70.20
2017-12-06T01:35:16.585Z,70.17
2017-12-06T01:36:22.301Z,70.12
2017-12-06T01:37:28.782Z,70.20
2017-12-06T01:38:34.527Z,70.25
2017-12-06T01:39:40.257Z,70.29
2017-12-06T01:40:45.965Z,70.34
2017-12-06T01:41:51.684Z,70.30
2017-12-06T01:42:57.397Z,70.27
2017-12-06T01:44:03.149Z,70.17
2017-12-06T01:45:08.905Z,70.08
2017-12-06T01:46:14.625Z,69.95
2017-12-06T01:47:20.144Z,69.90
2017-12-06T01:48:25.868Z,69.85
2017-12-06T01:49:31.644Z,69.86
2017-12-06T01:50:37.190Z,69.82
2017-12-06T01:51:42.906Z,69.69
2017-12-06T01:52:48.632Z,69.65
2017-12-06T01:53:54.342Z,69.59
2017-12-06T01:55:00.101Z,69.51
2017-12-06T01:56:05.916Z,69.53
2017-12-06T01:57:11.124Z,69.51
2017-12-06T01:58:16.198Z,69.42
2017-12-06T01:59:22.509Z,69.41
2017-12-06T02:00:28.262Z,69.36
2017-12-06T02:01:34.029Z,69.33
2017-12-06T02:02:40.528Z,69.30
2017-12-06T02:03:46.251Z,69.30
2017-12-06T02:04:51.965Z,69.25
2017-12-06T02:05:58.472Z,69.28
2017-12-06T02:07:04.195Z,69.22
2017-12-06T02:08:09.926Z,69.24
2017-12-06T02:09:15.642Z,69.27
2017-12-06T02:10:21.820Z,69.25
2017-12-06T02:11:27.236Z,69.29
2017-12-06T02:12:33.720Z,69.20
2017-12-06T02:13:39.436Z,69.20
2017-12-06T02:14:45.913Z,69.18
2017-12-06T02:15:51.628Z,69.09
2017-12-06T02:16:58.265Z,69.11
2017-12-06T02:18:03.992Z,69.04
2017-12-06T02:19:09.065Z,68.98
2017-12-06T02:20:15.233Z,68.95
2017-12-06T02:21:20.605Z,68.97
2017-12-06T02:22:26.357Z,68.94
2017-12-06T02:23:31.553Z,68.93
2017-12-06T02:24:36.934Z,68.87
2017-12-06T02:25:41.988Z,68.90
2017-12-06T02:26:47.376Z,68.97
2017-12-06T02:27:52.795Z,68.95
2017-12-06T02:28:57.840Z,68.92
2017-12-06T02:30:02.911Z,68.89
2017-12-06T02:31:08.302Z,68.87
2017-12-06T02:32:14.017Z,68.86
2017-12-06T02:33:19.752Z,68.83
2017-12-06T02:34:25.476Z,68.83
2017-12-06T02:35:31.193Z,68.85
2017-12-06T02:36:37.690Z,68.86
2017-12-06T02:37:43.408Z,68.78
2017-12-06T02:38:49.156Z,68.78
2017-12-06T02:40:11.533Z,68.86
2017-12-06T02:41:34.234Z,68.88
2017-12-06T02:42:56.966Z,68.98
2017-12-06T02:44:19.655Z,68.97
2017-12-06T02:45:27.994Z,69.11
2017-12-06T02:46:33.716Z,69.05
2017-12-06T02:47:40.205Z,69.04
2017-12-06T02:48:45.944Z,69.04
2017-12-06T02:49:51.690Z,68.91
2017-12-06T02:50:57.413Z,68.84
2017-12-06T02:52:03.908Z,68.84
2017-12-06T02:53:09.626Z,68.80
2017-12-06T02:54:15.345Z,68.74
2017-12-06T02:55:21.204Z,68.75
2017-12-06T02:56:26.909Z,68.69
2017-12-06T02:57:32.280Z,68.66
2017-12-06T02:58:37.328Z,68.70
2017-12-06T02:59:43.049Z,68.59
2017-12-06T03:00:48.464Z,68.52
2017-12-06T03:01:54.933Z,68.52
2017-12-06T03:03:00.647Z,68.53
2017-12-06T03:04:07.142Z,68.52
2017-12-06T03:05:12.856Z,68.53
2017-12-06T03:06:19.370Z,68.54
2017-12-06T03:07:25.085Z,68.46
2017-12-06T03:08:30.807Z,68.37
2017-12-06T03:09:36.524Z,68.28
2017-12-06T03:10:43.429Z,68.37
2017-12-06T03:11:49.160Z,68.32
2017-12-06T03:12:54.869Z,68.24
2017-12-06T03:14:00.589Z,68.12
2017-12-06T03:15:05.994Z,68.12
2017-12-06T03:16:11.699Z,68.06
2017-12-06T03:17:18.205Z,68.02
2017-12-06T03:18:23.916Z,68.00
2017-12-06T03:19:29.642Z,67.92
2017-12-06T03:20:36.130Z,67.86
2017-12-06T03:21:41.850Z,67.83
2017-12-06T03:22:48.353Z,67.76
2017-12-06T03:23:54.062Z,67.83
2017-12-06T03:24:59.773Z,67.82
2017-12-06T03:26:05.470Z,67.82
2017-12-06T03:27:11.173Z,67.79
2017-12-06T03:28:16.929Z,67.77
2017-12-06T03:29:22.642Z,67.74
2017-12-06T03:30:29.109Z,67.74
2017-12-06T03:31:35.606Z,67.71
2017-12-06T03:32:41.288Z,67.63
2017-12-06T03:33:46.997Z,67.63
2017-12-06T03:34:52.704Z,67.62
2017-12-06T03:35:58.409Z,67.59
2017-12-06T03:37:04.680Z,67.60
2017-12-06T03:38:11.151Z,67.63
2017-12-06T03:39:16.901Z,67.72
2017-12-06T03:40:22.625Z,67.92
2017-12-06T03:41:27.449Z,68.01
2017-12-06T03:42:33.178Z,68.00
2017-12-06T03:43:39.679Z,68.02
2017-12-06T03:44:45.417Z,68.17
2017-12-06T03:45:51.132Z,68.33
2017-12-06T03:46:56.850Z,68.53
2017-12-06T03:48:03.320Z,68.58
2017-12-06T03:49:08.832Z,68.70
2017-12-06T03:50:14.580Z,68.83
2017-12-06T03:51:21.064Z,68.92
2017-12-06T03:52:26.805Z,68.96
2017-12-06T03:53:32.855Z,69.01
2017-12-06T03:54:38.568Z,69.21
2017-12-06T03:55:45.085Z,69.18
2017-12-06T03:56:50.812Z,69.25
2017-12-06T03:57:56.352Z,69.28
2017-12-06T03:59:01.939Z,69.25
2017-12-06T04:00:07.662Z,69.30
2017-12-06T04:01:13.196Z,69.34
2017-12-06T04:02:18.924Z,69.36
2017-12-06T04:03:24.654Z,69.39
2017-12-06T04:04:30.367Z,69.51
2017-12-06T04:05:36.086Z,69.51
2017-12-06T04:06:42.628Z,69.51
2017-12-06T04:07:49.093Z,69.53
2017-12-06T04:08:54.812Z,69.52
2017-12-06T04:10:00.525Z,69.54
2017-12-06T04:11:06.240Z,69.58
2017-12-06T04:12:11.978Z,69.71
2017-12-06T04:13:17.711Z,69.72
2017-12-06T04:14:24.197Z,69.66
2017-12-06T04:15:29.924Z,69.56
2017-12-06T04:16:35.441Z,69.46
2017-12-06T04:17:41.956Z,69.45
2017-12-06T04:18:47.681Z,69.25
2017-12-06T04:19:53.406Z,69.36
2017-12-06T04:20:59.122Z,69.39
2017-12-06T04:22:05.612Z,69.28
2017-12-06T04:23:11.357Z,69.35
2017-12-06T04:24:17.100Z,69.35
2017-12-06T04:25:22.793Z,69.41
2017-12-06T04:26:28.517Z,69.32
2017-12-06T04:27:34.252Z,69.30
2017-12-06T04:28:39.999Z,69.33
2017-12-06T04:29:45.712Z,69.33
2017-12-06T04:30:51.436Z,69.35
2017-12-06T04:31:57.474Z,69.29
2017-12-06T04:33:03.200Z,69.13
2017-12-06T04:34:09.697Z,69.05
2017-12-06T04:35:15.408Z,69.07
2017-12-06T04:36:21.127Z,69.01
2017-12-06T04:37:27.036Z,68.86
2017-12-06T04:38:32.798Z,68.86
2017-12-06T04:39:38.202Z,68.68
2017-12-06T04:40:43.572Z,68.59
2017-12-06T04:41:50.048Z,68.45
2017-12-06T04:42:55.432Z,68.37
2017-12-06T04:44:01.133Z,68.18
2017-12-06T04:45:07.617Z,68.02
2017-12-06T04:46:13.368Z,67.81
2017-12-06T04:47:19.074Z,67.63
2017-12-06T04:48:25.538Z,67.22
2017-12-06T04:49:31.990Z,67.11
2017-12-06T04:50:38.472Z,67.08
2017-12-06T04:51:44.191Z,66.82
2017-12-06T04:52:51.442Z,66.66
2017-12-06T04:53:57.146Z,66.34
2017-12-06T04:55:02.855Z,66.32
2017-12-06T04:56:09.604Z,66.25
2017-12-06T04:57:15.669Z,66.12
2017-12-06T04:58:21.719Z,65.87
2017-12-06T04:59:27.765Z,65.79
2017-12-06T05:00:33.648Z,65.73
2017-12-06T05:01:39.668Z,65.75
2017-12-06T05:02:45.377Z,65.56
2017-12-06T05:03:51.070Z,65.54
2017-12-06T05:04:56.789Z,65.40
2017-12-06T05:06:03.235Z,65.27
2017-12-06T05:07:09.806Z,64.96
2017-12-06T05:08:16.265Z,64.95
2017-12-06T05:09:22.720Z,64.97
2017-12-06T05:10:29.184Z,64.88
2017-12-06T05:11:35.024Z,64.72
2017-12-06T05:12:41.512Z,64.75
2017-12-06T05:13:47.224Z,64.86
2017-12-06T05:14:53.685Z,65.01
2017-12-06T05:16:00.137Z,65.02
2017-12-06T05:17:06.596Z,65.02
2017-12-06T05:18:13.081Z,64.87
2017-12-06T05:19:18.768Z,64.85
2017-12-06T05:20:25.313Z,64.81
2017-12-06T05:21:30.995Z,64.79
2017-12-06T05:22:37.473Z,64.76
2017-12-06T05:23:43.197Z,64.79
2017-12-06T05:24:48.906Z,64.82
2017-12-06T05:25:54.601Z,64.82
2017-12-06T05:27:00.289Z,64.92
2017-12-06T05:28:05.998Z,64.97
2017-12-06T05:29:11.717Z,65.11
2017-12-06T05:30:17.425Z,65.32
2017-12-06T05:31:23.898Z,65.68
2017-12-06T05:32:29.600Z,66.00
2017-12-06T05:33:35.336Z,66.10
2017-12-06T05:34:41.085Z,66.27
2017-12-06T05:35:46.831Z,66.24
2017-12-06T05:36:52.709Z,66.10
2017-12-06T05:37:58.238Z,65.98
2017-12-06T05:39:04.153Z,65.94
2017-12-06T05:40:09.892Z,65.93
2017-12-06T05:41:15.606Z,65.79
2017-12-06T05:42:21.314Z,65.70
2017-12-06T05:43:27.008Z,65.38
2017-12-06T05:44:33.480Z,65.13
2017-12-06T05:45:39.204Z,65.10
2017-12-06T05:46:44.928Z,64.95
2017-12-06T05:47:50.632Z,64.70
2017-12-06T05:48:56.328Z,64.55
2017-12-06T05:50:02.029Z,64.43
2017-12-06T05:51:07.759Z,64.38
2017-12-06T05:52:13.473Z,64.26
2017-12-06T05:53:19.948Z,64.17
2017-12-06T05:54:25.682Z,64.13
2017-12-06T05:55:31.381Z,64.03
2017-12-06T05:56:37.126Z,64.04
2017-12-06T05:57:42.825Z,63.96
2017-12-06T05:58:48.525Z,63.94
2017-12-06T05:59:54.213Z,63.93
2017-12-06T06:00:59.907Z,63.81
2017-12-06T06:02:06.430Z,63.96
2017-12-06T06:03:12.141Z,63.96
2017-12-06T06:04:17.853Z,63.94
2017-12-06T06:05:24.347Z,63.93
2017-12-06T06:06:30.126Z,63.95
2017-12-06T06:07:35.861Z,63.97
2017-12-06T06:08:41.578Z,63.87
2017-12-06T06:09:47.390Z,63.94
2017-12-06T06:10:53.847Z,63.84
2017-12-06T06:12:00.246Z,63.87
2017-12-06T06:13:05.986Z,63.84
2017-12-06T06:14:11.513Z,63.92
2017-12-06T06:15:17.260Z,64.04
2017-12-06T06:16:23.022Z,64.12
2017-12-06T06:17:28.738Z,64.16
2017-12-06T06:18:34.487Z,64.12
2017-12-06T06:19:40.196Z,64.27
2017-12-06T06:20:45.912Z,64.29
2017-12-06T06:21:52.397Z,64.19
2017-12-06T06:22:58.122Z,64.21
2017-12-06T06:24:03.862Z,64.32
2017-12-06T06:25:09.583Z,64.35
2017-12-06T06:26:16.067Z,64.30
2017-12-06T06:27:21.829Z,64.32
2017-12-06T06:28:27.533Z,64.33
2017-12-06T06:29:33.274Z,64.31
2017-12-06T06:30:39.748Z,64.28
2017-12-06T06:31:45.515Z,64.34
2017-12-06T06:32:52.159Z,64.32
2017-12-06T06:33:57.876Z,64.26
2017-12-06T06:35:04.386Z,64.30
2017-12-06T06:36:10.109Z,64.31
2017-12-06T06:37:15.838Z,64.28
2017-12-06T06:38:21.552Z,64.25
2017-12-06T06:39:28.037Z,64.21
2017-12-06T06:42:43.063Z,64.00
2017-12-06T06:43:48.817Z,64.02
2017-12-06T06:44:55.302Z,64.04
2017-12-06T06:46:01.053Z,64.08
2017-12-06T06:47:06.774Z,64.15
2017-12-06T06:48:14.232Z,64.13
2017-12-06T06:51:30.280Z,64.20
2017-12-06T06:52:36.000Z,64.25
2017-12-06T06:53:41.726Z,64.26
2017-12-06T06:54:48.220Z,64.19
2017-12-06T06:55:53.942Z,64.11
2017-12-06T06:56:59.693Z,63.91
2017-12-06T06:58:05.423Z,63.68
2017-12-06T06:59:11.152Z,63.84
2017-12-06T07:00:17.652Z,63.85
2017-12-06T07:01:23.356Z,63.78
2017-12-06T07:02:29.097Z,63.77
2017-12-06T07:03:34.809Z,63.82
2017-12-06T07:04:40.519Z,63.87
2017-12-06T07:05:46.241Z,63.77
2017-12-06T07:06:51.958Z,63.76
2017-12-06T07:07:57.691Z,63.87
2017-12-06T07:09:03.760Z,63.92
2017-12-06T07:10:09.466Z,63.91
2017-12-06T07:11:15.952Z,63.87
2017-12-06T07:12:21.656Z,63.85
2017-12-06T07:13:27.396Z,63.78
2017-12-06T07:14:33.109Z,63.79
2017-12-06T07:15:38.825Z,63.76
2017-12-06T07:16:44.540Z,63.77
2017-12-06T07:17:51.025Z,63.65
2017-12-06T07:18:56.773Z,63.72
2017-12-06T07:20:02.489Z,63.78
2017-12-06T07:21:08.276Z,63.81
2017-12-06T07:22:14.904Z,63.64
2017-12-06T07:23:20.621Z,63.60
2017-12-06T07:24:26.797Z,63.56
2017-12-06T07:25:32.518Z,63.56
2017-12-06T07:26:39.039Z,63.59
2017-12-06T07:27:44.941Z,63.65
2017-12-06T07:28:50.149Z,63.46
2017-12-06T07:29:56.657Z,63.46
2017-12-06T07:31:02.218Z,63.52
2017-12-06T07:32:07.754Z,63.61
2017-12-06T07:33:13.484Z,63.68
2017-12-06T07:34:19.209Z,63.71
2017-12-06T07:35:24.759Z,63.72
2017-12-06T07:36:30.286Z,63.77
2017-12-06T07:37:35.584Z,63.69
2017-12-06T07:38:41.302Z,63.82
2017-12-06T07:39:47.784Z,63.90
2017-12-06T07:40:53.525Z,63.90
2017-12-06T07:41:58.900Z,63.96
2017-12-06T07:43:04.297Z,63.77
2017-12-06T07:44:10.014Z,63.68
2017-12-06T07:45:16.498Z,63.71
2017-12-06T07:46:22.261Z,63.72
2017-12-06T07:47:28.212Z,63.71
2017-12-06T07:48:33.928Z,63.63
2017-12-06T07:49:39.649Z,63.64
2017-12-06T07:50:45.352Z,63.63
2017-12-06T07:51:51.146Z,63.58
2017-12-06T07:52:56.864Z,63.45
2017-12-06T07:54:03.348Z,63.55
2017-12-06T07:55:09.073Z,63.53
2017-12-06T07:56:14.792Z,63.63
2017-12-06T07:57:21.304Z,63.73
2017-12-06T07:58:32.465Z,63.74
2017-12-06T07:59:38.202Z,63.76
2017-12-06T08:00:43.944Z,63.85
2017-12-06T08:01:49.662Z,63.87
2017-12-06T08:02:55.416Z,63.83
2017-12-06T08:04:01.128Z,63.79
2017-12-06T08:05:07.613Z,63.78
2017-12-06T08:06:13.324Z,63.65
2017-12-06T08:07:19.816Z,63.65
2017-12-06T08:08:25.552Z,63.70
2017-12-06T08:09:31.303Z,63.69
2017-12-06T08:10:37.053Z,63.68
2017-12-06T08:11:43.695Z,63.68
2017-12-06T08:12:49.823Z,63.63
2017-12-06T08:13:56.328Z,63.62
2017-12-06T08:15:02.119Z,63.65
2017-12-06T08:16:08.598Z,63.70
2017-12-06T08:17:15.081Z,63.67
2017-12-06T08:18:20.792Z,63.69
2017-12-06T08:19:26.528Z,63.72
2017-12-06T08:20:33.008Z,63.60
2017-12-06T08:21:38.733Z,63.59
2017-12-06T08:22:45.210Z,63.53
2017-12-06T08:23:50.924Z,63.49
2017-12-06T08:24:57.464Z,63.47
2017-12-06T08:26:03.189Z,63.55
2017-12-06T08:27:08.913Z,63.55
2017-12-06T08:28:14.436Z,63.55
2017-12-06T08:29:20.162Z,63.61
2017-12-06T08:30:26.011Z,63.50
2017-12-06T08:31:31.726Z,63.43
2017-12-06T08:32:38.214Z,63.42
2017-12-06T08:33:43.920Z,63.40
2017-12-06T08:34:50.412Z,63.37
2017-12-06T08:35:56.166Z,63.32
2017-12-06T08:37:01.873Z,63.27
2017-12-06T08:38:07.593Z,63.34
2017-12-06T08:39:14.094Z,63.37
2017-12-06T08:40:20.846Z,63.13
2017-12-06T08:41:26.895Z,63.10
2017-12-06T08:42:32.693Z,63.00
2017-12-06T08:43:38.379Z,63.23
2017-12-06T08:44:44.224Z,63.23
2017-12-06T08:45:49.665Z,63.21
2017-12-06T08:46:55.549Z,63.20
2017-12-06T08:48:01.430Z,63.12
2017-12-06T08:49:07.941Z,63.20
2017-12-06T08:50:16.583Z,63.15
2017-12-06T08:51:22.212Z,63.07
2017-12-06T08:52:28.737Z,62.95
2017-12-06T08:53:34.562Z,62.99
2017-12-06T08:54:40.366Z,62.92
2017-12-06T08:55:46.162Z,62.85
2017-12-06T08:56:51.999Z,62.84
2017-12-06T08:57:57.823Z,62.92
2017-12-06T08:59:03.566Z,62.91
2017-12-06T09:00:09.206Z,62.88
2017-12-06T09:01:15.087Z,62.80
2017-12-06T09:02:20.812Z,62.74
2017-12-06T09:03:26.684Z,62.69
2017-12-06T09:04:32.428Z,62.61
2017-12-06T09:05:38.233Z,62.64
2017-12-06T09:06:44.002Z,62.60
2017-12-06T09:07:50.689Z,62.62
2017-12-06T09:08:56.432Z,62.72
2017-12-06T09:10:02.921Z,62.78
2017-12-06T09:11:07.973Z,62.79
2017-12-06T09:12:13.021Z,62.86
2017-12-06T09:13:18.077Z,62.88
2017-12-06T09:14:24.597Z,62.89
2017-12-06T09:15:30.345Z,62.82
2017-12-06T09:16:36.145Z,62.74
2017-12-06T09:17:42.085Z,62.71
2017-12-06T09:18:48.242Z,62.68
2017-12-06T09:19:54.081Z,62.65
2017-12-06T09:20:59.849Z,62.68
2017-12-06T09:22:05.747Z,62.63
2017-12-06T09:23:12.229Z,62.55
2017-12-06T09:24:17.944Z,62.56
2017-12-06T09:25:24.453Z,62.52
2017-12-06T09:26:30.584Z,62.43
2017-12-06T09:27:36.607Z,62.30
2017-12-06T09:28:42.452Z,62.39
2017-12-06T09:29:48.936Z,62.35
2017-12-06T09:30:54.678Z,62.36
2017-12-06T09:32:00.456Z,62.39
2017-12-06T09:33:06.250Z,62.34
2017-12-06T09:34:12.913Z,62.27
2017-12-06T09:35:18.627Z,62.21
2017-12-06T09:36:25.217Z,62.27
2017-12-06T09:37:31.002Z,62.30
2017-12-06T09:38:36.706Z,62.30
2017-12-06T09:39:42.680Z,62.30
2017-12-06T09:40:48.541Z,62.25
2017-12-06T09:41:54.291Z,62.26
2017-12-06T09:43:01.205Z,62.35
2017-12-06T09:44:06.959Z,62.43
2017-12-06T09:45:12.817Z,62.57
2017-12-06T09:46:18.680Z,62.65
2017-12-06T09:47:24.454Z,62.75
2017-12-06T09:48:30.946Z,62.75
2017-12-06T09:49:36.684Z,62.82
2017-12-06T09:50:42.617Z,62.68
2017-12-06T09:51:48.440Z,62.46
2017-12-06T09:52:54.180Z,62.51
2017-12-06T09:54:00.821Z,62.60
2017-12-06T09:55:06.604Z,62.79
2017-12-06T09:56:12.414Z,62.76
2017-12-06T09:57:18.162Z,62.83
2017-12-06T09:58:24.702Z,62.85
2017-12-06T09:59:30.428Z,63.07
2017-12-06T10:00:36.199Z,63.07
2017-12-06T10:01:42.677Z,62.98
2017-12-06T10:02:49.490Z,62.96
2017-12-06T10:03:55.284Z,62.89
2017-12-06T10:05:01.109Z,62.88
2017-12-06T10:06:07.602Z,62.98
2017-12-06T10:07:13.428Z,63.04
2017-12-06T10:08:19.152Z,63.01
2017-12-06T10:09:25.664Z,63.01
2017-12-06T10:10:31.491Z,62.94
2017-12-06T10:11:37.547Z,62.95
2017-12-06T10:12:43.349Z,63.00
2017-12-06T10:13:49.836Z,63.05
2017-12-06T10:14:55.585Z,62.94
2017-12-06T10:16:01.314Z,62.86
2017-12-06T10:17:07.364Z,62.93
2017-12-06T10:18:12.953Z,62.97
2017-12-06T10:19:18.681Z,63.05
2017-12-06T10:20:24.549Z,62.99
2017-12-06T10:21:30.380Z,63.05
2017-12-06T10:22:36.222Z,63.04
2017-12-06T10:23:42.058Z,62.97
2017-12-06T10:24:47.376Z,62.92
2017-12-06T10:25:53.273Z,62.95
2017-12-06T10:26:59.023Z,62.90
2017-12-06T10:28:05.532Z,62.94
2017-12-06T10:29:11.260Z,63.02
2017-12-06T10:30:16.835Z,62.97
2017-12-06T10:31:22.634Z,62.90
2017-12-06T10:32:28.556Z,62.78
2017-12-06T10:33:34.019Z,62.74
2017-12-06T10:34:40.720Z,62.63
2017-12-06T10:35:46.551Z,62.78
2017-12-06T10:36:52.647Z,62.75
2017-12-06T10:37:58.459Z,62.72
2017-12-06T10:39:04.052Z,62.74
2017-12-06T10:40:09.820Z,62.67
2017-12-06T10:41:15.600Z,62.63
2017-12-06T10:42:21.456Z,62.46
2017-12-06T10:43:27.249Z,62.39
2017-12-06T10:44:33.105Z,62.42
2017-12-06T10:45:38.852Z,62.52
2017-12-06T10:46:44.781Z,62.55
2017-12-06T10:47:50.588Z,62.54
2017-12-06T10:48:56.407Z,62.53
2017-12-06T10:50:02.191Z,62.43
2017-12-06T10:51:08.047Z,62.48
2017-12-06T10:52:14.150Z,62.49
2017-12-06T10:53:20.114Z,62.46
2017-12-06T10:54:25.881Z,62.42
2017-12-06T10:55:31.635Z,62.34
2017-12-06T10:56:37.407Z,62.32
2017-12-06T10:57:43.980Z,62.25
2017-12-06T10:58:49.832Z,62.35
2017-12-06T10:59:56.081Z,62.39
2017-12-06T11:01:01.996Z,62.33
2017-12-06T11:02:08.501Z,62.21
2017-12-06T11:03:14.322Z,62.20
2017-12-06T11:04:20.864Z,62.28
2017-12-06T11:05:26.475Z,62.32
2017-12-06T11:06:32.345Z,62.33
2017-12-06T11:07:38.928Z,62.24
2017-12-06T11:08:44.678Z,62.18
2017-12-06T11:09:50.507Z,62.17
2017-12-06T11:10:56.345Z,62.07
2017-12-06T11:12:02.852Z,62.11
2017-12-06T11:13:08.730Z,62.20
2017-12-06T11:14:15.325Z,62.23
2017-12-06T11:15:21.126Z,62.19
2017-12-06T11:16:27.634Z,62.14
2017-12-06T11:17:33.475Z,62.11
2017-12-06T11:18:39.342Z,62.18
2017-12-06T11:19:45.149Z,62.20
2017-12-06T11:20:50.984Z,62.19
2017-12-06T11:21:56.768Z,62.34
2017-12-06T11:23:02.634Z,62.41
2017-12-06T11:24:09.111Z,62.35
2017-12-06T11:25:15.598Z,62.50
2017-12-06T11:26:21.334Z,62.56
2017-12-06T11:27:27.062Z,62.55
2017-12-06T11:28:33.556Z,62.51
2017-12-06T11:29:39.312Z,62.50
2017-12-06T11:30:45.330Z,62.62
2017-12-06T11:31:51.097Z,62.64
2017-12-06T11:32:57.633Z,62.69
2017-12-06T11:34:03.380Z,62.78
2017-12-06T11:35:09.298Z,62.94
2017-12-06T11:36:15.774Z,62.99
2017-12-06T11:37:21.539Z,63.08
2017-12-06T11:38:27.264Z,63.15
2017-12-06T11:39:32.999Z,63.27
2017-12-06T11:40:38.744Z,63.27
2017-12-06T11:41:44.466Z,63.19
2017-12-06T11:42:50.956Z,63.02
2017-12-06T11:43:56.679Z,62.97
2017-12-06T11:45:02.493Z,62.97
2017-12-06T11:46:08.235Z,62.99
2017-12-06T11:47:14.756Z,63.04
2017-12-06T11:48:20.497Z,63.10
2017-12-06T11:49:26.210Z,63.13
2017-12-06T11:50:31.916Z,63.14
2017-12-06T11:51:38.468Z,63.09
2017-12-06T11:52:44.207Z,63.09
2017-12-06T11:53:49.952Z,63.18
2017-12-06T11:54:56.445Z,63.24
2017-12-06T11:56:02.164Z,63.20
2017-12-06T11:57:08.649Z,63.12
2017-12-06T11:58:14.369Z,63.09
2017-12-06T11:59:20.229Z,63.09
2017-12-06T12:00:25.361Z,63.23
2017-12-06T12:01:31.138Z,63.25
2017-12-06T12:02:37.002Z,63.29
2017-12-06T12:03:43.561Z,63.24
2017-12-06T12:04:50.073Z,63.14
2017-12-06T12:05:55.800Z,63.07
2017-12-06T12:07:01.595Z,63.04
2017-12-06T12:08:07.390Z,63.05
2017-12-06T12:09:13.252Z,63.23
2017-12-06T12:10:18.969Z,63.24
2017-12-06T12:11:24.680Z,63.19
2017-12-06T12:12:31.162Z,63.21
2017-12-06T12:13:36.913Z,63.28
2017-12-06T12:14:42.785Z,63.31
2017-12-06T12:15:48.889Z,63.24
2017-12-06T12:16:55.685Z,63.34
2017-12-06T12:18:01.471Z,63.49
2017-12-06T12:19:07.190Z,63.52
2017-12-06T12:20:12.908Z,63.58
2017-12-06T12:21:18.846Z,63.65
2017-12-06T12:22:25.195Z,63.62
2017-12-06T12:23:31.241Z,63.43
2017-12-06T12:24:37.033Z,63.39
2017-12-06T12:25:42.889Z,63.35
2017-12-06T12:26:48.910Z,63.36
2017-12-06T12:27:54.672Z,63.37
2017-12-06T12:29:01.954Z,63.34
2017-12-06T12:30:07.726Z,63.41
2017-12-06T12:31:13.477Z,63.51
2017-12-06T12:32:20.133Z,63.48
2017-12-06T12:33:25.887Z,63.51
2017-12-06T12:34:31.840Z,63.56
2017-12-06T12:35:38.697Z,63.54
2017-12-06T12:36:43.926Z,63.59
2017-12-06T12:37:49.197Z,63.56
2017-12-06T12:38:54.143Z,63.49
2017-12-06T12:39:59.282Z,63.62
2017-12-06T12:41:06.036Z,63.65
2017-12-06T12:42:11.236Z,63.62
2017-12-06T12:43:16.404Z,63.61
2017-12-06T12:44:22.424Z,63.58
2017-12-06T12:45:27.277Z,63.53
2017-12-06T12:46:33.951Z,63.41
2017-12-06T12:47:39.105Z,63.41
2017-12-06T12:48:44.196Z,63.52
2017-12-06T12:49:49.333Z,63.62
2017-12-06T12:50:54.654Z,63.60
2017-12-06T12:51:59.729Z,63.53
2017-12-06T12:53:04.784Z,63.62
2017-12-06T12:54:11.394Z,63.68
2017-12-06T12:55:16.446Z,63.80
2017-12-06T12:56:21.529Z,63.74
2017-12-06T12:57:26.239Z,63.81
2017-12-06T12:58:31.335Z,63.86
2017-12-06T12:59:37.233Z,63.97
2017-12-06T13:00:42.067Z,63.95
2017-12-06T13:01:47.138Z,63.95
2017-12-06T13:02:52.952Z,63.89
2017-12-06T13:03:58.024Z,63.79
2017-12-06T13:05:03.074Z,63.82
2017-12-06T13:06:08.158Z,63.79
2017-12-06T13:07:13.988Z,63.71
2017-12-06T13:08:19.825Z,63.72
2017-12-06T13:09:24.992Z,63.72
2017-12-06T13:10:30.080Z,63.76
2017-12-06T13:11:35.161Z,63.73
2017-12-06T13:12:40.223Z,63.78
2017-12-06T13:13:45.702Z,63.73
2017-12-06T13:14:51.365Z,63.72
2017-12-06T13:15:56.473Z,63.77
2017-12-06T13:17:01.766Z,63.75
2017-12-06T13:18:07.690Z,63.72
2017-12-06T13:19:12.874Z,63.79
2017-12-06T13:20:18.831Z,63.85
2017-12-06T13:21:26.408Z,63.80
2017-12-06T13:22:31.626Z,63.88
2017-12-06T13:23:36.738Z,63.81
2017-12-06T13:24:42.577Z,63.85
2017-12-06T13:25:47.506Z,63.87
2017-12-06T13:26:53.165Z,64.03
2017-12-06T13:27:58.244Z,64.00
2017-12-06T13:29:03.713Z,64.07
2017-12-06T13:30:10.079Z,64.13
2017-12-06T13:31:15.161Z,64.19
2017-12-06T13:33:25.244Z,64.31
2017-12-06T13:34:30.474Z,64.36
2017-12-06T13:35:35.696Z,64.30
2017-12-06T13:36:42.166Z,64.13
2017-12-06T13:37:47.379Z,63.95
2017-12-06T13:38:52.529Z,64.12
2017-12-06T13:39:57.678Z,64.14
2017-12-06T13:41:02.753Z,64.22
2017-12-06T13:42:08.445Z,64.21
2017-12-06T13:43:13.827Z,64.14
2017-12-06T13:44:19.684Z,64.03
2017-12-06T13:45:24.781Z,64.04
2017-12-06T13:46:30.703Z,64.06
2017-12-06T13:47:35.777Z,63.92
2017-12-06T13:48:41.762Z,63.94
2017-12-06T13:49:46.811Z,63.97
2017-12-06T13:50:53.690Z,64.05
2017-12-06T13:51:58.438Z,64.05
2017-12-06T13:53:03.531Z,64.01
2017-12-06T13:54:08.760Z,64.13
2017-12-06T13:55:14.006Z,64.13
2017-12-06T13:56:20.154Z,64.12
2017-12-06T13:57:26.374Z,64.19
2017-12-06T13:58:31.844Z,64.20
2017-12-06T13:59:38.209Z,64.08
2017-12-06T14:00:43.932Z,64.12
2017-12-06T14:01:50.569Z,64.20
2017-12-06T14:02:56.869Z,64.18
2017-12-06T14:04:03.765Z,64.19
2017-12-06T14:05:09.478Z,64.19
2017-12-06T14:07:20.523Z,64.21
2017-12-06T14:08:26.286Z,64.15
2017-12-06T14:09:32.769Z,64.08
2017-12-06T14:10:38.299Z,64.06
2017-12-06T14:11:43.352Z,64.14
2017-12-06T14:12:48.815Z,64.02
2017-12-06T14:13:53.865Z,64.10
2017-12-06T14:15:00.147Z,64.04
2017-12-06T14:16:05.273Z,64.07